Time;durP1;ratioP1;P1;durP2;ratioP2;P2;SDS_P1;SDS_P2;PMS_P1;PMS_P2;Temp;Humidity;BMP_temperature;BMP_pressure;BME280_temperature;BME280_humidity;BME280_pressure;Samples;Min_cycle;Max_cycle;Signal;HPM_P1;HPM_P2
2021/12/02 00:02:10;;;;;;;5.18;0.63;;;3.30;99.90;;;;;;5063526;28;20394;-78
2021/12/02 00:04:38;;;;;;;3.83;1.75;;;3.30;99.90;;;;;;5058975;28;20984;-78
2021/12/02 00:07:05;;;;;;;0.50;0.50;;;3.30;99.90;;;;;;5069293;28;20049;-78
2021/12/02 00:09:32;;;;;;;1.67;0.75;;;3.30;99.90;;;;;;5065433;28;20044;-78
2021/12/02 00:11:58;;;;;;;0.50;0.50;;;3.30;99.90;;;;;;5070140;28;20045;-78
2021/12/02 00:14:25;;;;;;;5.53;0.82;;;3.20;99.90;;;;;;5045080;28;20045;-78
2021/12/02 00:22:12;;;;;;;3.83;0.95;;;3.20;99.90;;;;;;5057043;28;20048;-78
2021/12/02 00:24:40;;;;;;;5.38;1.25;;;3.30;99.90;;;;;;5061500;28;20040;-78
2021/12/02 00:27:09;;;;;;;8.63;1.55;;;3.40;99.90;;;;;;5070321;28;20040;-78
2021/12/02 00:29:36;;;;;;;4.47;1.20;;;3.50;99.90;;;;;;5066138;28;20057;-78
2021/12/02 00:32:05;;;;;;;5.32;1.58;;;3.60;99.90;;;;;;5066267;28;20045;-78
2021/12/02 00:34:31;;;;;;;8.52;1.75;;;3.70;99.90;;;;;;5068387;28;20040;-78
2021/12/02 00:37:00;;;;;;;12.10;2.20;;;3.80;99.90;;;;;;5068947;28;20064;-78
2021/12/02 00:39:27;;;;;;;7.07;2.03;;;3.90;99.90;;;;;;5068359;28;20310;-78
2021/12/02 00:41:54;;;;;;;4.95;0.95;;;4.00;99.90;;;;;;5070117;28;20094;-78
2021/12/02 00:44:20;;;;;;;7.45;1.70;;;4.10;99.90;;;;;;5063954;28;20119;-78
2021/12/02 00:46:46;;;;;;;12.02;1.55;;;4.20;99.90;;;;;;5064173;28;20798;-78
2021/12/02 00:49:15;;;;;;;4.85;0.95;;;4.20;99.90;;;;;;5067560;28;20063;-78
2021/12/02 00:51:46;;;;;;;1.15;0.57;;;4.20;99.90;;;;;;5059648;28;20080;-79
2021/12/02 00:54:12;;;;;;;0.40;0.40;;;4.20;99.90;;;;;;5065972;28;20394;-78
2021/12/02 00:56:39;;;;;;;0.82;0.50;;;4.10;99.90;;;;;;5066350;28;20036;-78
2021/12/02 00:59:07;;;;;;;0.93;0.77;;;4.10;99.90;;;;;;5064491;28;20036;-78
2021/12/02 01:01:36;;;;;;;1.77;0.55;;;4.00;99.90;;;;;;5070432;28;20040;-78
2021/12/02 01:04:07;;;;;;;3.05;0.60;;;4.00;99.90;;;;;;5069902;28;20040;-78
2021/12/02 01:06:33;;;;;;;2.08;0.50;;;4.00;99.90;;;;;;5058172;28;20458;-78
2021/12/02 01:08:58;;;;;;;2.97;0.80;;;4.00;99.90;;;;;;5068379;28;20123;-78
2021/12/02 01:11:24;;;;;;;0.70;0.50;;;4.00;99.90;;;;;;5067139;28;20037;-78
2021/12/02 01:13:51;;;;;;;2.28;0.77;;;4.00;99.90;;;;;;5066683;28;20396;-78
2021/12/02 01:16:17;;;;;;;1.45;0.43;;;4.10;99.90;;;;;;5063032;28;20041;-78
2021/12/02 01:18:43;;;;;;;5.10;0.50;;;4.20;99.90;;;;;;5070079;28;20561;-78
2021/12/02 01:21:18;;;;;;;3.08;1.00;;;4.30;99.90;;;;;;5060692;28;20053;-79
2021/12/02 01:23:47;;;;;;;3.38;0.80;;;4.30;99.90;;;;;;5061763;28;20049;-78
2021/12/02 01:26:16;;;;;;;0.52;0.52;;;4.30;99.90;;;;;;5067795;28;20044;-79
2021/12/02 01:28:43;;;;;;;2.38;0.57;;;4.20;99.90;;;;;;5069980;28;20041;-78
2021/12/02 01:31:11;;;;;;;0.63;0.63;;;4.10;99.90;;;;;;5064184;28;20548;-79
2021/12/02 01:33:39;;;;;;;0.95;0.68;;;4.10;99.90;;;;;;5069821;28;20402;-78
2021/12/02 01:36:05;;;;;;;2.05;0.47;;;4.00;99.90;;;;;;5063287;28;20492;-78
2021/12/02 01:38:32;;;;;;;0.30;0.30;;;4.00;99.90;;;;;;5067358;28;20454;-78
2021/12/02 01:41:00;;;;;;;3.65;0.50;;;3.90;99.90;;;;;;5072320;28;20041;-78
2021/12/02 01:43:45;;;;;;;0.30;0.30;;;3.90;99.90;;;;;;5073686;28;20040;-78
2021/12/02 01:46:13;;;;;;;1.75;0.35;;;3.80;99.90;;;;;;5056950;28;20111;-78
2021/12/02 01:48:41;;;;;;;3.63;1.00;;;3.80;99.90;;;;;;5067232;28;20397;-78
2021/12/02 01:51:10;;;;;;;3.10;0.40;;;3.80;99.90;;;;;;5060644;28;20382;-78
2021/12/02 01:53:38;;;;;;;0.40;0.40;;;3.70;99.90;;;;;;5067491;28;20049;-78
2021/12/02 01:56:11;;;;;;;0.20;0.20;;;3.70;99.90;;;;;;5054835;28;20045;-78
2021/12/02 01:59:00;;;;;;;0.30;0.30;;;3.70;99.90;;;;;;5072190;28;20048;-77
2021/12/02 02:01:27;;;;;;;0.30;0.30;;;3.60;99.90;;;;;;5071833;28;20557;-77
2021/12/02 02:03:54;;;;;;;5.00;3.70;;;3.60;99.90;;;;;;5072801;28;20437;-78
2021/12/02 02:06:36;;;;;;;0.30;0.30;;;3.50;99.90;;;;;;5066459;28;20036;-78
2021/12/02 02:09:03;;;;;;;0.20;0.20;;;3.50;99.90;;;;;;5073162;28;20044;-77
2021/12/02 02:11:30;;;;;;;5.80;1.27;;;3.40;99.90;;;;;;5072768;28;20060;-78
2021/12/02 02:13:59;;;;;;;0.35;0.35;;;3.40;99.90;;;;;;5070039;28;20044;-77
2021/12/02 02:16:26;;;;;;;0.38;0.38;;;3.40;99.90;;;;;;5088389;28;20045;-78
2021/12/02 02:18:52;;;;;;;0.20;0.20;;;3.30;99.90;;;;;;5055056;28;20040;-77
2021/12/02 02:21:21;;;;;;;3.05;1.00;;;3.30;99.90;;;;;;5053029;28;20125;-78
2021/12/02 02:23:58;;;;;;;7.75;1.02;;;3.30;99.90;;;;;;5057968;28;20032;-78
2021/12/02 02:26:34;;;;;;;0.73;0.50;;;3.30;99.90;;;;;;5059064;28;20133;-77
2021/12/02 02:29:00;;;;;;;0.30;0.30;;;3.30;99.90;;;;;;5051328;28;20041;-78
2021/12/02 02:31:28;;;;;;;6.53;1.08;;;3.20;99.90;;;;;;5053510;28;20512;-78
2021/12/02 02:33:54;;;;;;;0.30;0.30;;;3.20;99.90;;;;;;5055405;28;20044;-78
2021/12/02 02:36:22;;;;;;;0.65;0.52;;;3.20;99.90;;;;;;5084835;28;20398;-78
2021/12/02 02:38:58;;;;;;;2.38;0.82;;;3.20;99.90;;;;;;5056540;28;20047;-78
2021/12/02 02:41:35;;;;;;;0.88;0.88;;;3.20;99.90;;;;;;5059900;28;20114;-78
2021/12/02 02:44:02;;;;;;;0.85;0.55;;;3.30;99.90;;;;;;5061638;28;20036;-78
2021/12/02 02:46:31;;;;;;;0.30;0.30;;;3.30;99.90;;;;;;5062320;28;20048;-78
2021/12/02 02:48:59;;;;;;;2.08;0.57;;;3.30;99.90;;;;;;5059675;28;20076;-78
2021/12/02 02:51:26;;;;;;;0.30;0.30;;;3.30;99.90;;;;;;5070010;28;20044;-78
2021/12/02 02:53:56;;;;;;;0.32;0.32;;;3.30;99.90;;;;;;5063695;28;20051;-78
2021/12/02 02:56:24;;;;;;;0.20;0.20;;;3.30;99.90;;;;;;5069144;28;20466;-78
2021/12/02 03:01:36;;;;;;;3.95;0.80;;;3.30;99.90;;;;;;5065217;28;20059;-78
2021/12/02 03:06:51;;;;;;;0.80;0.50;;;3.30;99.90;;;;;;5071036;28;20449;-77
2021/12/02 03:12:14;;;;;;;0.20;0.20;;;3.30;99.90;;;;;;5065424;28;20055;-77
2021/12/02 03:17:10;;;;;;;1.63;0.38;;;3.30;99.90;;;;;;5065504;28;20132;-78
2021/12/02 03:19:40;;;;;;;0.52;0.47;;;3.30;99.90;;;;;;5050798;28;20068;-78
2021/12/02 03:22:06;;;;;;;3.53;0.85;;;3.30;99.90;;;;;;5090378;28;20397;-78
2021/12/02 03:24:32;;;;;;;0.70;0.47;;;3.20;99.90;;;;;;5066294;28;20435;-78
2021/12/02 03:26:58;;;;;;;0.93;0.60;;;3.20;99.90;;;;;;5059017;28;20045;-78
2021/12/02 03:29:24;;;;;;;0.30;0.30;;;3.10;99.90;;;;;;5054484;28;20413;-77
2021/12/02 03:31:50;;;;;;;0.20;0.20;;;3.10;99.90;;;;;;5053464;28;20045;-78
2021/12/02 03:34:16;;;;;;;1.30;1.17;;;3.00;99.90;;;;;;5056339;28;20041;-78
2021/12/02 03:36:42;;;;;;;0.20;0.20;;;2.90;99.90;;;;;;5068912;28;20048;-77
2021/12/02 03:39:10;;;;;;;0.20;0.20;;;2.80;99.90;;;;;;5061062;28;20409;-78
2021/12/02 03:41:38;;;;;;;0.30;0.30;;;2.70;99.90;;;;;;5062318;28;20048;-78
2021/12/02 03:44:04;;;;;;;0.30;0.30;;;2.60;99.90;;;;;;5059464;28;20048;-77
2021/12/02 03:46:30;;;;;;;0.20;0.20;;;2.60;99.90;;;;;;5064139;28;20496;-78
2021/12/02 03:48:56;;;;;;;0.50;0.50;;;2.50;99.90;;;;;;5070938;28;20047;-78
2021/12/02 03:51:22;;;;;;;0.20;0.20;;;2.40;99.90;;;;;;5068852;28;20047;-78
2021/12/02 03:53:48;;;;;;;0.43;0.40;;;2.30;99.90;;;;;;5057260;28;20090;-78
2021/12/02 03:56:14;;;;;;;0.30;0.30;;;2.20;99.90;;;;;;5061593;28;20044;-78
2021/12/02 03:58:43;;;;;;;0.30;0.30;;;2.20;99.90;;;;;;5070620;28;20123;-78
2021/12/02 04:01:09;;;;;;;0.20;0.20;;;2.10;99.90;;;;;;5069273;28;20161;-77
2021/12/02 04:03:35;;;;;;;0.20;0.20;;;2.00;99.90;;;;;;5051728;28;20098;-78
2021/12/02 04:06:02;;;;;;;0.30;0.30;;;1.90;99.90;;;;;;5062510;28;20094;-78
2021/12/02 04:09:13;;;;;;;0.30;0.30;;;1.80;99.90;;;;;;5064681;28;20053;-78
2021/12/02 04:16:36;;;;;;;0.30;0.30;;;1.70;99.90;;;;;;5088820;28;19920;-78
2021/12/02 04:19:05;;;;;;;0.20;0.20;;;1.60;99.90;;;;;;5067955;28;20044;-77
2021/12/02 04:21:32;;;;;;;0.30;0.30;;;1.50;99.90;;;;;;5056942;28;20094;-78
2021/12/02 04:23:57;;;;;;;0.30;0.30;;;1.50;99.90;;;;;;5069913;28;20412;-78
2021/12/02 04:26:23;;;;;;;0.30;0.30;;;1.60;99.90;;;;;;5070234;28;20033;-78
2021/12/02 04:28:49;;;;;;;3.35;0.52;;;1.60;99.90;;;;;;5067126;28;20048;-78
2021/12/02 04:31:15;;;;;;;0.40;0.40;;;1.70;99.90;;;;;;5057340;28;20326;-77
2021/12/02 04:33:40;;;;;;;0.38;0.38;;;1.70;99.90;;;;;;5063994;28;20393;-77
2021/12/02 04:36:07;;;;;;;0.30;0.30;;;1.70;99.90;;;;;;5066047;28;20469;-78
2021/12/02 04:38:33;;;;;;;0.30;0.30;;;1.70;99.90;;;;;;5069172;28;20062;-77
2021/12/02 04:40:59;;;;;;;0.40;0.40;;;1.70;99.90;;;;;;5070745;28;20078;-77
2021/12/02 04:43:25;;;;;;;1.90;0.70;;;1.70;99.90;;;;;;5065753;28;20119;-77
2021/12/02 04:45:51;;;;;;;0.57;0.57;;;1.80;99.90;;;;;;5067930;28;20033;-77
2021/12/02 04:48:18;;;;;;;0.30;0.30;;;1.80;99.90;;;;;;5062852;28;20484;-77
2021/12/02 04:50:44;;;;;;;0.40;0.40;;;1.80;99.90;;;;;;5070337;28;20052;-77
2021/12/02 04:53:10;;;;;;;0.32;0.32;;;1.80;99.90;;;;;;5052634;28;20055;-77
2021/12/02 04:55:36;;;;;;;0.22;0.22;;;1.90;99.90;;;;;;5078216;28;20056;-77
2021/12/02 04:58:02;;;;;;;0.30;0.30;;;1.90;99.90;;;;;;5070044;28;20078;-77
2021/12/02 05:00:28;;;;;;;0.63;0.50;;;2.00;99.90;;;;;;5059789;28;20076;-77
2021/12/02 05:02:54;;;;;;;1.27;0.50;;;2.00;99.90;;;;;;5065865;28;20096;-77
2021/12/02 05:05:20;;;;;;;0.73;0.45;;;2.00;99.90;;;;;;5068767;28;20036;-77
2021/12/02 05:07:47;;;;;;;1.02;0.75;;;2.10;99.90;;;;;;5069025;28;20111;-77
2021/12/02 05:10:13;;;;;;;4.68;0.70;;;2.10;99.90;;;;;;5057881;28;20044;-77
2021/12/02 05:12:38;;;;;;;0.30;0.30;;;2.20;99.90;;;;;;5068600;28;20106;-77
2021/12/02 05:15:04;;;;;;;0.30;0.30;;;2.30;99.90;;;;;;5055948;28;20389;-77
2021/12/02 05:17:30;;;;;;;0.32;0.32;;;2.30;99.90;;;;;;5057672;28;20049;-77
2021/12/02 05:19:56;;;;;;;0.73;0.52;;;2.40;99.90;;;;;;5068759;28;20071;-78
2021/12/02 05:22:21;;;;;;;4.70;1.25;;;2.40;99.90;;;;;;5062768;28;20576;-77
2021/12/02 05:24:47;;;;;;;1.58;0.60;;;2.50;99.90;;;;;;5067691;28;20105;-77
2021/12/02 05:27:14;;;;;;;0.80;0.80;;;2.60;99.90;;;;;;5062898;28;20484;-78
2021/12/02 05:29:40;;;;;;;2.25;0.55;;;2.60;99.90;;;;;;5069200;28;20044;-77
2021/12/02 05:32:06;;;;;;;0.30;0.30;;;2.60;99.90;;;;;;5061894;28;20071;-78
2021/12/02 05:34:31;;;;;;;0.30;0.30;;;2.60;99.90;;;;;;5060747;28;20455;-78
2021/12/02 05:36:57;;;;;;;0.40;0.40;;;2.50;99.90;;;;;;5059170;28;20032;-78
2021/12/02 05:39:23;;;;;;;0.30;0.30;;;2.40;99.90;;;;;;5069215;28;20055;-78
2021/12/02 05:41:53;;;;;;;0.30;0.30;;;2.40;99.90;;;;;;5067746;28;20040;-78
2021/12/02 05:44:20;;;;;;;0.60;0.60;;;2.40;99.90;;;;;;5063972;28;20049;-78
2021/12/02 05:46:45;;;;;;;0.30;0.30;;;2.40;99.90;;;;;;5062955;28;20469;-78
2021/12/02 05:49:11;;;;;;;0.30;0.30;;;2.40;99.90;;;;;;5069397;28;20113;-78
2021/12/02 05:51:37;;;;;;;0.30;0.30;;;2.50;99.90;;;;;;5069658;28;20051;-78
2021/12/02 05:54:02;;;;;;;0.20;0.20;;;2.40;99.90;;;;;;5062327;28;20033;-78
2021/12/02 05:56:28;;;;;;;0.30;0.30;;;2.50;99.90;;;;;;5060072;28;20468;-78
2021/12/02 05:58:54;;;;;;;0.45;0.40;;;2.50;99.90;;;;;;5056098;28;20040;-78
2021/12/02 06:01:20;;;;;;;0.60;0.60;;;2.60;99.90;;;;;;5069537;28;20055;-78
2021/12/02 06:03:46;;;;;;;0.63;0.63;;;2.60;99.90;;;;;;5061082;28;20123;-78
2021/12/02 06:06:12;;;;;;;0.20;0.20;;;2.60;99.90;;;;;;5067939;28;20049;-78
2021/12/02 06:08:38;;;;;;;0.30;0.30;;;2.60;99.90;;;;;;5062187;28;20048;-78
2021/12/02 06:11:04;;;;;;;2.40;1.25;;;2.60;99.90;;;;;;5068942;28;20108;-78
2021/12/02 06:13:29;;;;;;;1.40;0.52;;;2.50;99.90;;;;;;5050997;28;20025;-78
2021/12/02 06:15:55;;;;;;;0.40;0.40;;;2.60;99.90;;;;;;5061196;28;20492;-78
2021/12/02 06:18:21;;;;;;;0.63;0.63;;;2.50;99.90;;;;;;5069165;28;20451;-78
2021/12/02 06:20:51;;;;;;;0.30;0.30;;;2.50;99.90;;;;;;5059261;28;20033;-78
2021/12/02 06:23:17;;;;;;;0.70;0.40;;;2.40;99.90;;;;;;5061085;28;20044;-78
2021/12/02 06:25:46;;;;;;;0.30;0.30;;;2.40;99.90;;;;;;5070893;28;20097;-78
2021/12/02 06:28:11;;;;;;;0.20;0.20;;;2.40;99.90;;;;;;5065763;28;20036;-78
2021/12/02 06:30:37;;;;;;;0.30;0.30;;;2.40;99.90;;;;;;5067365;28;20055;-78
2021/12/02 06:33:03;;;;;;;0.28;0.28;;;2.40;99.90;;;;;;5071606;28;20408;-78
2021/12/02 06:35:29;;;;;;;0.30;0.30;;;2.40;99.90;;;;;;5051006;28;20144;-78
2021/12/02 06:37:55;;;;;;;0.32;0.32;;;2.40;99.90;;;;;;5049096;28;20076;-78
2021/12/02 06:40:21;;;;;;;0.30;0.30;;;2.30;99.90;;;;;;5065222;28;20041;-78
2021/12/02 06:42:47;;;;;;;0.30;0.30;;;2.30;99.90;;;;;;5072771;28;20041;-78
2021/12/02 06:45:13;;;;;;;0.30;0.30;;;2.20;99.90;;;;;;5067795;28;20071;-78
2021/12/02 06:47:40;;;;;;;0.20;0.20;;;2.20;99.90;;;;;;5096487;28;20045;-78
2021/12/02 06:50:13;;;;;;;0.20;0.20;;;2.20;99.90;;;;;;5069199;28;20036;-78
2021/12/02 06:52:39;;;;;;;;;;;2.20;99.90;;;;;;5070229;28;20511;-78
2021/12/02 06:55:06;;;;;;;0.30;0.30;;;2.20;99.90;;;;;;5059076;28;19959;-78
2021/12/02 06:57:31;;;;;;;1.35;1.25;;;2.30;99.90;;;;;;5066592;28;20032;-78
2021/12/02 07:00:03;;;;;;;0.40;0.40;;;2.30;99.90;;;;;;5067871;28;20060;-78
2021/12/02 07:02:30;;;;;;;0.30;0.30;;;2.30;99.90;;;;;;5066257;28;20040;-78
2021/12/02 07:04:58;;;;;;;0.38;0.38;;;2.30;99.90;;;;;;5071607;28;20028;-78
2021/12/02 07:07:24;;;;;;;0.40;0.40;;;2.40;99.90;;;;;;5054920;28;20029;-78
2021/12/02 07:09:50;;;;;;;0.20;0.20;;;2.40;99.90;;;;;;5068330;28;20036;-78
2021/12/02 07:12:18;;;;;;;7.57;1.15;;;2.40;99.90;;;;;;5072194;28;20036;-78
2021/12/02 07:14:47;;;;;;;0.30;0.30;;;2.50;99.90;;;;;;5063185;28;20436;-77
2021/12/02 07:17:13;;;;;;;0.50;0.50;;;2.50;99.90;;;;;;5064454;28;20048;-78
2021/12/02 07:19:40;;;;;;;0.30;0.30;;;2.50;99.90;;;;;;5054637;28;20496;-78
2021/12/02 07:22:06;;;;;;;0.20;0.20;;;2.50;99.90;;;;;;5061599;28;20049;-77
2021/12/02 07:24:32;;;;;;;0.30;0.30;;;2.60;99.90;;;;;;5070117;28;20033;-78
2021/12/02 07:26:58;;;;;;;0.30;0.30;;;2.60;99.90;;;;;;5051452;28;20480;-78
2021/12/02 07:29:23;;;;;;;0.30;0.30;;;2.60;99.90;;;;;;5062852;28;20036;-78
2021/12/02 07:31:50;;;;;;;0.30;0.30;;;2.60;99.90;;;;;;5070179;28;20038;-78
2021/12/02 07:34:17;;;;;;;0.43;0.43;;;2.60;99.90;;;;;;5068712;28;20090;-78
2021/12/02 07:36:44;;;;;;;0.30;0.30;;;2.60;99.90;;;;;;5069775;28;20378;-78
2021/12/02 07:39:10;;;;;;;0.63;0.45;;;2.50;99.90;;;;;;5062539;28;20077;-78
2021/12/02 07:41:39;;;;;;;0.30;0.30;;;2.50;99.90;;;;;;5093151;28;20476;-78
2021/12/02 07:44:06;;;;;;;0.30;0.30;;;2.40;99.90;;;;;;5065866;28;20093;-78
2021/12/02 07:46:32;;;;;;;0.38;0.38;;;2.40;99.90;;;;;;5068988;28;20064;-78
2021/12/02 07:48:59;;;;;;;0.68;0.45;;;2.40;99.90;;;;;;5067036;28;20028;-78
2021/12/02 07:51:29;;;;;;;0.82;0.75;;;2.30;99.90;;;;;;5070113;28;20040;-78
2021/12/02 07:53:57;;;;;;;0.40;0.40;;;2.30;99.90;;;;;;5063786;28;20032;-78
2021/12/02 07:56:24;;;;;;;0.40;0.40;;;2.30;99.90;;;;;;5059566;28;20386;-78
2021/12/02 07:58:50;;;;;;;0.30;0.30;;;2.20;99.90;;;;;;5068084;28;20059;-78
2021/12/02 08:01:17;;;;;;;0.30;0.30;;;2.20;99.90;;;;;;5070674;28;20048;-78
2021/12/02 08:03:44;;;;;;;1.17;1.17;;;2.30;99.90;;;;;;5057466;28;20452;-78
2021/12/02 08:06:15;;;;;;;0.40;0.40;;;2.40;99.90;;;;;;5063399;28;20053;-78
2021/12/02 08:08:42;;;;;;;0.32;0.32;;;2.60;99.90;;;;;;5059222;28;20043;-78
2021/12/02 08:11:09;;;;;;;0.30;0.30;;;2.80;99.90;;;;;;5062177;28;20565;-78
2021/12/02 08:13:36;;;;;;;0.30;0.30;;;3.10;99.90;;;;;;5066456;28;20033;-78
2021/12/02 08:16:04;;;;;;;3.38;3.20;;;3.50;99.90;;;;;;5062322;28;20056;-78
2021/12/02 08:18:30;;;;;;;0.50;0.50;;;3.40;99.90;;;;;;5070934;28;20040;-78
2021/12/02 08:20:55;;;;;;;0.25;0.25;;;3.30;99.90;;;;;;5059451;28;20071;-78
2021/12/02 08:23:22;;;;;;;1.00;1.00;;;3.20;99.90;;;;;;5065696;28;20396;-78
2021/12/02 08:25:48;;;;;;;0.30;0.30;;;3.20;99.90;;;;;;5069479;28;20524;-78
2021/12/02 08:28:15;;;;;;;0.25;0.25;;;3.20;99.90;;;;;;5068507;28;20472;-78
2021/12/02 08:30:41;;;;;;;0.30;0.30;;;3.00;99.90;;;;;;5063338;28;20040;-78
2021/12/02 08:33:08;;;;;;;1.42;1.40;;;2.90;99.90;;;;;;5070916;28;20052;-78
2021/12/02 08:35:35;;;;;;;0.47;0.47;;;2.90;99.90;;;;;;5043680;28;20048;-78
2021/12/02 08:38:11;;;;;;;0.30;0.30;;;2.80;99.90;;;;;;5057560;28;20048;-78
2021/12/02 08:40:38;;;;;;;0.20;0.20;;;2.80;99.90;;;;;;5055424;28;20099;-78
2021/12/02 08:43:07;;;;;;;0.20;0.20;;;2.90;99.90;;;;;;5060537;28;20424;-78
2021/12/02 08:45:34;;;;;;;0.50;0.50;;;2.90;99.90;;;;;;5062891;28;20037;-78
2021/12/02 08:48:02;;;;;;;3.35;0.50;;;3.40;99.90;;;;;;5061072;28;20048;-78
2021/12/02 08:50:29;;;;;;;0.57;0.57;;;3.50;99.90;;;;;;5061659;28;20052;-78
2021/12/02 08:52:57;;;;;;;0.30;0.30;;;3.90;99.90;;;;;;5061167;28;20040;-78
2021/12/02 08:55:24;;;;;;;4.28;0.60;;;4.20;99.90;;;;;;5093097;28;20087;-78
2021/12/02 08:57:52;;;;;;;3.20;1.20;;;4.30;99.90;;;;;;5060104;28;20280;-78
2021/12/02 09:00:22;;;;;;;0.75;0.75;;;4.20;99.90;;;;;;5056823;28;20044;-78
2021/12/02 09:02:48;;;;;;;0.20;0.20;;;4.20;99.90;;;;;;5057219;28;20043;-78
2021/12/02 09:05:14;;;;;;;0.50;0.50;;;4.10;99.90;;;;;;5062450;28;20528;-78
2021/12/02 09:07:40;;;;;;;1.10;0.73;;;4.00;99.90;;;;;;5059496;28;20424;-78
2021/12/02 09:10:09;;;;;;;0.73;0.73;;;3.90;99.90;;;;;;5052821;28;20029;-78
2021/12/02 09:12:36;;;;;;;0.30;0.30;;;3.80;99.90;;;;;;5059541;28;20373;-78
2021/12/02 09:15:04;;;;;;;0.40;0.40;;;3.80;99.90;;;;;;5052887;28;20037;-78
2021/12/02 09:17:29;;;;;;;2.38;1.52;;;3.70;99.90;;;;;;5055982;28;20036;-77
2021/12/02 09:19:55;;;;;;;0.47;0.47;;;3.70;99.90;;;;;;5055467;28;20037;-78
2021/12/02 09:22:21;;;;;;;0.50;0.50;;;3.70;99.90;;;;;;5054317;28;20040;-78
2021/12/02 09:24:47;;;;;;;1.38;0.63;;;3.60;99.90;;;;;;5062150;28;20649;-78
2021/12/02 09:27:13;;;;;;;0.73;0.73;;;3.60;99.90;;;;;;5061274;28;20064;-78
2021/12/02 09:29:38;;;;;;;0.52;0.52;;;3.60;99.90;;;;;;5058118;28;20075;-77
2021/12/02 09:32:04;;;;;;;3.10;1.00;;;3.50;99.90;;;;;;5063120;28;20043;-77
2021/12/02 09:34:30;;;;;;;0.68;0.68;;;3.50;99.90;;;;;;5057131;28;20051;-77
2021/12/02 09:36:57;;;;;;;0.30;0.30;;;3.50;99.90;;;;;;5060885;28;20033;-78
2021/12/02 09:39:29;;;;;;;0.30;0.30;;;3.50;99.90;;;;;;5060001;28;20083;-76
2021/12/02 09:41:55;;;;;;;0.25;0.25;;;3.50;99.90;;;;;;5056677;28;20036;-76
2021/12/02 09:44:21;;;;;;;0.30;0.30;;;3.50;99.90;;;;;;5059248;28;20036;-76
2021/12/02 09:46:47;;;;;;;0.30;0.30;;;3.60;99.90;;;;;;5059797;28;20036;-76
2021/12/02 09:49:13;;;;;;;0.20;0.20;;;3.50;99.90;;;;;;5056895;28;20513;-76
2021/12/02 09:52:03;;;;;;;0.20;0.20;;;3.50;99.90;;;;;;5062461;28;20037;-76
2021/12/02 09:54:31;;;;;;;0.20;0.20;;;3.50;99.90;;;;;;5056666;28;20060;-77
2021/12/02 09:57:04;;;;;;;0.30;0.30;;;3.70;99.90;;;;;;5044317;28;20088;-76
2021/12/02 09:59:47;;;;;;;1.67;1.40;;;3.80;99.90;;;;;;5067679;28;20040;-76
2021/12/02 10:02:17;;;;;;;0.88;0.88;;;4.20;99.90;;;;;;5064545;28;20090;-76
2021/12/02 10:04:55;;;;;;;1.08;0.90;;;4.50;99.90;;;;;;5043810;28;20174;-76
2021/12/02 10:10:07;;;;;;;;;;;4.40;99.90;;;;;;5068133;28;20051;-77
2021/12/02 10:12:36;;;;;;;0.40;0.40;;;4.30;99.90;;;;;;5058378;28;20010;-77
2021/12/02 10:15:11;;;;;;;0.25;0.25;;;4.10;99.90;;;;;;5058831;28;20123;-76
2021/12/02 10:17:57;;;;;;;0.30;0.30;;;4.10;99.90;;;;;;5060710;28;20045;-77
2021/12/02 10:23:43;;;;;;;0.35;0.35;;;4.00;99.90;;;;;;5038444;28;20052;-76
2021/12/02 10:26:09;;;;;;;1.38;1.08;;;4.00;99.90;;;;;;5059990;28;20045;-77
2021/12/02 10:28:42;;;;;;;0.30;0.30;;;4.00;99.90;;;;;;5060140;28;20115;-77
2021/12/02 10:31:09;;;;;;;;;;;3.90;99.90;;;;;;5065604;28;20495;-77
2021/12/02 10:33:38;;;;;;;0.40;0.32;;;3.90;99.90;;;;;;5058785;28;19922;-77
2021/12/02 10:36:20;;;;;;;0.32;0.32;;;3.90;99.90;;;;;;5058062;28;20266;-77
2021/12/02 10:38:47;;;;;;;0.43;0.43;;;3.80;99.90;;;;;;5089682;28;20076;-76
2021/12/02 10:41:24;;;;;;;0.30;0.30;;;3.60;99.90;;;;;;5059034;28;20405;-77
2021/12/02 10:44:11;;;;;;;0.30;0.30;;;3.60;99.90;;;;;;5038341;28;20083;-76
2021/12/02 10:46:57;;;;;;;0.57;0.47;;;3.40;99.90;;;;;;5063406;28;20042;-76
2021/12/02 10:49:24;;;;;;;0.40;0.40;;;3.30;99.90;;;;;;5062646;28;20185;-77
2021/12/02 10:51:56;;;;;;;0.30;0.30;;;3.20;99.90;;;;;;5065575;28;20048;-76
2021/12/02 10:54:32;;;;;;;0.20;0.20;;;3.10;99.90;;;;;;5054949;28;20082;-77
2021/12/02 10:57:06;;;;;;;0.20;0.20;;;3.10;99.90;;;;;;5056844;28;20093;-77
2021/12/02 10:59:39;;;;;;;0.57;0.57;;;3.00;99.90;;;;;;5064833;28;20041;-76
2021/12/02 11:02:07;;;;;;;0.57;0.57;;;3.00;99.90;;;;;;5058315;28;20044;-77
2021/12/02 11:04:37;;;;;;;0.45;0.45;;;3.00;99.90;;;;;;5056233;28;20044;-76
2021/12/02 11:07:09;;;;;;;0.30;0.30;;;3.00;99.90;;;;;;5057285;28;20051;-77
2021/12/02 11:09:35;;;;;;;0.20;0.20;;;2.90;99.90;;;;;;5062216;28;20093;-76
2021/12/02 11:12:27;;;;;;;0.30;0.30;;;2.90;99.90;;;;;;5063448;28;20029;-78
2021/12/02 11:15:01;;;;;;;0.30;0.30;;;2.90;99.90;;;;;;5059051;28;20119;-76
2021/12/02 11:17:30;;;;;;;0.30;0.30;;;2.90;99.90;;;;;;5069334;28;20326;-77
2021/12/02 11:19:57;;;;;;;0.30;0.30;;;2.90;99.90;;;;;;5065022;28;20428;-76
2021/12/02 11:22:25;;;;;;;0.60;0.60;;;2.90;99.90;;;;;;5043135;28;20048;-76
2021/12/02 11:24:51;;;;;;;0.60;0.60;;;2.90;99.90;;;;;;5058798;28;20424;-76
2021/12/02 11:27:21;;;;;;;0.45;0.45;;;2.80;99.90;;;;;;5086542;28;20051;-77
2021/12/02 11:29:50;;;;;;;0.40;0.40;;;2.70;99.90;;;;;;5059492;28;20416;-77
2021/12/02 11:32:45;;;;;;;1.05;0.50;;;2.60;99.90;;;;;;5060346;28;20123;-77
2021/12/02 11:35:14;;;;;;;0.50;0.50;;;2.40;99.90;;;;;;5055336;28;20282;-77
2021/12/02 11:37:43;;;;;;;1.80;0.43;;;2.30;99.90;;;;;;5051510;28;20041;-77
2021/12/02 11:40:16;;;;;;;0.30;0.30;;;2.20;99.90;;;;;;5060181;28;20039;-77
2021/12/02 11:42:43;;;;;;;0.50;0.50;;;2.10;99.90;;;;;;5056368;28;20032;-77
2021/12/02 11:45:12;;;;;;;0.40;0.40;;;2.10;99.90;;;;;;5056647;28;20044;-77
2021/12/02 11:47:38;;;;;;;1.52;0.98;;;2.00;99.90;;;;;;5055502;28;20048;-77
2021/12/02 11:50:07;;;;;;;0.50;0.50;;;1.90;99.90;;;;;;5095091;28;20040;-77
2021/12/02 11:52:36;;;;;;;0.57;0.57;;;1.90;99.90;;;;;;5046422;28;20037;-77
2021/12/02 11:55:04;;;;;;;0.47;0.47;;;1.80;99.90;;;;;;5060932;28;20036;-77
2021/12/02 11:57:33;;;;;;;0.40;0.40;;;1.80;99.90;;;;;;5088194;28;20036;-77
2021/12/02 12:00:00;;;;;;;0.28;0.28;;;1.80;99.90;;;;;;5059737;28;20045;-77
2021/12/02 12:02:26;;;;;;;0.30;0.30;;;1.70;99.90;;;;;;5059360;28;20118;-77
2021/12/02 12:04:55;;;;;;;0.40;0.40;;;1.70;99.90;;;;;;5056905;28;20123;-77
2021/12/02 12:07:22;;;;;;;0.30;0.30;;;1.70;99.90;;;;;;5063605;28;20028;-77
2021/12/02 12:09:48;;;;;;;0.30;0.30;;;1.90;99.90;;;;;;5063141;28;20083;-76
2021/12/02 12:12:15;;;;;;;0.75;0.75;;;2.10;99.90;;;;;;5058289;28;20032;-77
2021/12/02 12:14:48;;;;;;;0.40;0.40;;;2.40;99.90;;;;;;5058537;28;20052;-77
2021/12/02 12:17:15;;;;;;;;;;;2.60;99.90;;;;;;5057283;28;20040;-78
2021/12/02 12:19:44;;;;;;;0.45;0.45;;;2.80;99.90;;;;;;5053852;28;19963;-77
2021/12/02 12:22:23;;;;;;;0.50;0.50;;;3.00;99.90;;;;;;5057072;28;20062;-78
2021/12/02 12:24:55;;;;;;;1.35;0.43;;;3.10;99.90;;;;;;5065753;28;20109;-77
2021/12/02 12:27:26;;;;;;;0.50;0.50;;;3.40;99.90;;;;;;5067613;28;20127;-78
2021/12/02 12:30:01;;;;;;;1.77;0.90;;;3.60;99.90;;;;;;5037515;28;20041;-77
2021/12/02 12:32:41;;;;;;;2.92;0.82;;;3.80;99.90;;;;;;5059843;28;20052;-77
2021/12/02 12:35:15;;;;;;;0.57;0.57;;;3.80;99.90;;;;;;5060060;28;20053;-77
2021/12/02 12:40:11;;;;;;;0.28;0.28;;;3.50;99.90;;;;;;5058705;28;20052;-78
2021/12/02 12:42:48;;;;;;;0.40;0.40;;;3.50;99.90;;;;;;5055884;28;20075;-77
2021/12/02 12:45:42;;;;;;;0.30;0.30;;;3.40;99.90;;;;;;5061128;28;20076;-77
2021/12/02 12:48:29;;;;;;;0.43;0.43;;;3.30;99.90;;;;;;5050655;28;20095;-77
2021/12/02 12:51:23;;;;;;;0.20;0.20;;;3.30;99.90;;;;;;5044868;28;20071;-78
2021/12/02 12:53:50;;;;;;;;;;;3.30;99.90;;;;;;5059525;28;20130;-78
2021/12/02 12:56:24;;;;;;;1.17;1.08;;;3.30;99.90;;;;;;5051953;28;19920;-77
2021/12/02 12:58:53;;;;;;;0.30;0.30;;;3.20;99.90;;;;;;5055364;28;20040;-77
2021/12/02 13:01:24;;;;;;;0.30;0.30;;;3.20;99.90;;;;;;5056923;28;20056;-78
2021/12/02 13:04:13;;;;;;;0.30;0.30;;;3.20;99.90;;;;;;5061652;28;20042;-78
2021/12/02 13:07:04;;;;;;;0.38;0.38;;;3.20;99.90;;;;;;5061550;28;20041;-77
2021/12/02 13:09:52;;;;;;;2.05;0.85;;;3.20;99.90;;;;;;5058426;28;20044;-78
2021/12/02 13:12:21;;;;;;;0.60;0.60;;;3.20;99.90;;;;;;5058758;28;20048;-78
2021/12/02 13:14:50;;;;;;;1.55;0.60;;;3.10;99.90;;;;;;5063594;28;20045;-77
2021/12/02 13:17:36;;;;;;;0.70;0.70;;;3.10;99.90;;;;;;5054937;28;20048;-77
2021/12/02 13:20:34;;;;;;;0.50;0.50;;;3.00;99.90;;;;;;5050098;28;20067;-77
2021/12/02 13:23:12;;;;;;;0.57;0.57;;;3.00;99.90;;;;;;5062227;28;20065;-77
2021/12/02 13:26:06;;;;;;;0.50;0.50;;;2.90;99.90;;;;;;5061136;28;20047;-77
2021/12/02 13:28:41;;;;;;;0.45;0.45;;;2.90;99.90;;;;;;5062182;28;20044;-77
2021/12/02 13:31:09;;;;;;;0.30;0.30;;;2.90;99.90;;;;;;5052892;28;20049;-77
2021/12/02 13:33:50;;;;;;;0.52;0.52;;;3.00;99.90;;;;;;5065961;28;20048;-77
2021/12/02 13:36:33;;;;;;;0.77;0.77;;;3.00;99.90;;;;;;5065699;28;20036;-78
2021/12/02 13:39:14;;;;;;;0.30;0.30;;;3.10;99.90;;;;;;5061922;28;20036;-77